Time;durP1;ratioP1;P1;durP2;ratioP2;P2;SDS_P1;SDS_P2;PMS_P1;PMS_P2;Temp;Humidity;BMP_temperature;BMP_pressure;BME280_temperature;BME280_humidity;BME280_pressure;Samples;Min_cycle;Max_cycle;Signal;HPM_P1;HPM_P2
2023/03/10 00:00:11;;;;;;;16.43;7.87;;;;;;;-40.21;100.00;92244.47;4189989;28;20397;-64
2023/03/10 00:02:43;;;;;;;17.80;8.23;;;;;;;-40.19;100.00;92244.41;4189982;28;20220;-67
2023/03/10 00:05:10;;;;;;;18.33;8.53;;;;;;;-40.09;100.00;92247.31;4190534;28;20307;-67
2023/03/10 00:07:36;;;;;;;17.60;7.73;;;;;;;-40.11;100.00;92244.16;4192095;28;21446;-67
2023/03/10 00:10:03;;;;;;;20.30;8.53;;;;;;;-40.22;100.00;92246.97;4194341;28;20755;-67
2023/03/10 00:12:30;;;;;;;22.73;8.23;;;;;;;-40.23;100.00;92248.63;4192898;28;20228;-67
2023/03/10 00:14:56;;;;;;;21.93;8.63;;;;;;;-40.21;100.00;92256.69;4175722;28;20275;-67
2023/03/10 00:17:23;;;;;;;20.50;8.10;;;;;;;-40.22;100.00;92233.09;4197586;28;20303;-67
2023/03/10 00:19:49;;;;;;;19.10;8.10;;;;;;;-40.25;100.00;92225.91;4192262;28;20258;-70
2023/03/10 00:22:16;;;;;;;19.50;8.47;;;;;;;-40.32;100.00;92219.66;4184047;28;20313;-66
2023/03/10 00:24:42;;;;;;;16.60;8.07;;;;;;;-40.20;100.00;92223.28;4191301;28;20237;-66
2023/03/10 00:27:09;;;;;;;18.27;8.17;;;;;;;-40.18;100.00;92215.91;4193462;28;21695;-65
2023/03/10 00:29:35;;;;;;;22.93;8.40;;;;;;;-40.20;100.00;92206.19;4188162;28;20237;-68
2023/03/10 00:32:02;;;;;;;19.80;9.40;;;;;;;-40.26;100.00;92201.53;4194528;28;20250;-67
2023/03/10 00:34:29;;;;;;;21.30;9.47;;;;;;;-40.18;100.00;92197.16;4195512;28;21481;-67
2023/03/10 00:36:55;;;;;;;27.07;9.33;;;;;;;-40.21;100.00;92202.13;4191690;28;20248;-67
2023/03/10 00:39:22;;;;;;;26.27;9.23;;;;;;;-40.21;100.00;92198.06;4193895;28;20316;-66
2023/03/10 00:41:48;;;;;;;21.47;8.97;;;;;;;-40.22;100.00;92206.22;4194662;28;20251;-65
2023/03/10 00:44:15;;;;;;;22.17;10.27;;;;;;;-40.16;100.00;92197.09;4183247;28;20245;-67
2023/03/10 00:46:41;;;;;;;20.23;9.03;;;;;;;-40.21;100.00;92193.19;4187231;28;20233;-68
2023/03/10 00:49:13;;;;;;;25.40;10.77;;;;;;;-40.25;100.00;92181.16;4208642;28;26016;-65
2023/03/10 00:51:40;;;;;;;23.13;10.43;;;;;;;-40.28;100.00;92176.38;4178121;28;20242;-64
2023/03/10 00:54:06;;;;;;;23.87;10.13;;;;;;;-40.30;100.00;92178.09;4180515;28;20314;-67
2023/03/10 00:56:33;;;;;;;23.17;10.63;;;;;;;-40.31;100.00;92177.28;4198866;28;20232;-68
2023/03/10 00:59:00;;;;;;;28.50;11.67;;;;;;;-40.31;100.00;92178.94;4209454;28;20253;-66
2023/03/10 01:01:31;;;;;;;26.93;10.87;;;;;;;-40.26;100.00;92180.34;4189590;28;21542;-64
2023/03/10 01:04:00;;;;;;;26.80;10.53;;;;;;;-40.24;100.00;92178.66;4216467;28;20246;-64
2023/03/10 01:06:27;;;;;;;30.43;11.27;;;;;;;-40.23;100.00;92169.69;4194715;28;20238;-67
2023/03/10 01:08:53;;;;;;;27.83;11.97;;;;;;;-40.24;100.00;92173.75;4187359;28;20500;-66
2023/03/10 01:11:23;;;;;;;28.90;12.50;;;;;;;-40.24;100.00;92173.75;4198370;28;20237;-64
2023/03/10 01:13:50;;;;;;;27.83;12.30;;;;;;;-40.23;100.00;92167.25;4196582;28;22155;-63
2023/03/10 01:16:16;;;;;;;31.97;12.90;;;;;;;-40.26;100.00;92170.56;4187584;28;20628;-66
2023/03/10 01:18:43;;;;;;;30.40;12.83;;;;;;;-40.26;100.00;92165.69;4185840;28;20247;-63
2023/03/10 01:21:16;;;;;;;35.97;13.83;;;;;;;-40.33;100.00;92159.44;4181770;28;20326;-64
2023/03/10 01:23:42;;;;;;;33.13;13.70;;;;;;;-40.37;100.00;92152.25;4193093;28;20486;-64
2023/03/10 01:26:09;;;;;;;29.50;12.43;;;;;;;-40.29;100.00;92150.38;4183221;28;21856;-65
2023/03/10 01:28:36;;;;;;;28.20;13.07;;;;;;;-40.26;100.00;92148.59;4193261;28;20359;-66
2023/03/10 01:31:04;;;;;;;31.87;14.27;;;;;;;-40.22;100.00;92142.72;4188062;28;20785;-67
2023/03/10 01:33:31;;;;;;;36.50;13.73;;;;;;;-40.26;100.00;92135.59;4189165;28;20252;-66
2023/03/10 01:35:57;;;;;;;36.93;14.63;;;;;;;-40.33;100.00;92129.34;4188096;28;20340;-65
2023/03/10 01:38:24;;;;;;;37.00;14.83;;;;;;;-40.31;100.00;92140.63;4193487;28;20369;-65
2023/03/10 01:40:50;;;;;;;33.63;15.50;;;;;;;-40.33;100.00;92125.25;4194503;28;20239;-66
2023/03/10 01:43:20;;;;;;;36.03;15.87;;;;;;;-40.36;100.00;92125.34;4190745;28;20234;-61
2023/03/10 01:45:47;;;;;;;37.47;16.50;;;;;;;-40.36;100.00;92122.13;4192413;28;21814;-63
2023/03/10 01:48:15;;;;;;;38.33;15.13;;;;;;;-40.31;100.00;92123.53;4190313;28;20760;-66
2023/03/10 01:50:44;;;;;;;38.83;16.07;;;;;;;-40.24;100.00;92122.47;4172227;28;20709;-64
2023/03/10 01:53:12;;;;;;;38.37;15.27;;;;;;;-40.23;100.00;92115.94;4192065;28;20241;-66
2023/03/10 01:55:42;;;;;;;40.43;16.13;;;;;;;-40.33;100.00;92110.59;4191521;28;23206;-66
2023/03/10 01:58:09;;;;;;;37.37;16.90;;;;;;;-40.30;100.00;92105.59;4183607;28;20241;-65
2023/03/10 02:00:36;;;;;;;36.70;17.27;;;;;;;-40.28;100.00;92096.59;4198245;28;20318;-65
2023/03/10 02:03:18;;;;;;;41.07;17.13;;;;;;;-40.34;100.00;92091.91;4194860;28;20352;-64
2023/03/10 02:05:48;;;;;;;42.53;17.63;;;;;;;-40.32;100.00;92091.88;4182534;28;20237;-68
2023/03/10 02:08:16;;;;;;;39.13;17.93;;;;;;;-40.39;100.00;92078.28;4180893;28;20540;-65
2023/03/10 02:10:43;;;;;;;43.03;18.27;;;;;;;-40.40;100.00;92084.78;4187393;28;23003;-68
2023/03/10 02:13:10;;;;;;;38.80;17.57;;;;;;;-40.44;100.00;92079.25;4184934;28;20243;-68
2023/03/10 02:15:36;;;;;;;38.43;17.33;;;;;;;-40.43;100.00;92065.38;4194804;28;20312;-65
2023/03/10 02:18:04;;;;;;;42.23;18.03;;;;;;;-40.37;100.00;92055.41;4190379;28;20242;-65
2023/03/10 02:20:55;;;;;;;43.60;17.87;;;;;;;-40.45;100.00;92037.78;4208386;28;20252;-66
2023/03/10 02:23:27;;;;;;;45.60;17.60;;;;;;;-40.43;100.00;92034.44;4201615;28;20237;-63
2023/03/10 02:26:00;;;;;;;48.10;18.97;;;;;;;-40.41;100.00;92039.25;4193266;28;20251;-64
2023/03/10 02:28:26;;;;;;;40.23;18.30;;;;;;;-40.49;100.00;92050.94;4193596;28;20232;-65
2023/03/10 02:30:53;;;;;;;43.37;18.30;;;;;;;-40.46;100.00;92053.28;4198813;28;20237;-66
2023/03/10 02:33:23;;;;;;;39.53;17.27;;;;;;;-40.41;100.00;92034.38;4187387;28;20288;-64
2023/03/10 02:35:50;;;;;;;39.57;18.00;;;;;;;-40.34;100.00;92025.97;4182435;28;21939;-66
2023/03/10 02:38:16;;;;;;;40.83;18.10;;;;;;;-40.37;100.00;92030.16;4191878;28;20237;-66
2023/03/10 02:40:48;;;;;;;42.00;17.13;;;;;;;-40.32;100.00;92028.38;4192805;28;20239;-67
2023/03/10 02:43:19;;;;;;;45.43;17.43;;;;;;;-40.37;100.00;92011.44;4185982;28;20313;-67
2023/03/10 02:45:47;;;;;;;36.50;16.37;;;;;;;-40.35;100.00;92012.19;4181271;28;20274;-65
2023/03/10 02:48:19;;;;;;;37.40;16.80;;;;;;;-40.28;100.00;92013.53;4179645;28;20315;-67
2023/03/10 02:50:46;;;;;;;42.83;18.23;;;;;;;-40.28;100.00;92010.28;4177914;28;20405;-64
2023/03/10 02:53:16;;;;;;;44.70;17.50;;;;;;;-40.20;100.00;92009.09;4194037;28;20348;-67
2023/03/10 02:55:43;;;;;;;47.07;18.80;;;;;;;-40.23;100.00;92004.34;4186073;28;20651;-65
2023/03/10 02:58:10;;;;;;;42.83;17.20;;;;;;;-40.23;100.00;91998.72;4178502;28;20314;-65
2023/03/10 03:00:38;;;;;;;39.83;17.77;;;;;;;-40.26;100.00;91994.72;4176621;28;20922;-66
2023/03/10 03:03:06;;;;;;;41.03;17.70;;;;;;;-40.32;100.00;91986.84;4182484;28;23064;-68
2023/03/10 03:05:33;;;;;;;42.90;18.10;;;;;;;-40.32;100.00;91990.06;4198611;28;20255;-66
2023/03/10 03:07:59;;;;;;;41.70;17.37;;;;;;;-40.32;100.00;91990.06;4178209;28;20253;-66
2023/03/10 03:10:26;;;;;;;47.27;18.53;;;;;;;-40.29;100.00;91967.19;4183671;28;20307;-64
2023/03/10 03:12:55;;;;;;;45.73;18.63;;;;;;;-40.27;100.00;91963.81;4187228;28;21946;-67
2023/03/10 03:15:22;;;;;;;50.37;17.67;;;;;;;-40.27;100.00;91956.50;4207511;28;23532;-67
2023/03/10 03:17:48;;;;;;;43.87;17.97;;;;;;;-40.29;100.00;91943.53;4188135;28;20247;-67
2023/03/10 03:20:16;;;;;;;42.80;18.03;;;;;;;-40.20;100.00;91935.81;4188575;28;21662;-63
2023/03/10 03:22:44;;;;;;;40.33;17.50;;;;;;;-40.23;100.00;91926.19;4204827;28;20245;-67
2023/03/10 03:25:13;;;;;;;44.60;18.33;;;;;;;-40.23;100.00;91918.84;4184272;28;20310;-65
2023/03/10 03:27:41;;;;;;;49.70;18.90;;;;;;;-40.23;100.00;91911.53;4190010;28;21637;-65
2023/03/10 03:30:13;;;;;;;44.60;18.07;;;;;;;-40.24;100.00;91917.28;4187846;28;20240;-66
2023/03/10 03:32:40;;;;;;;45.83;19.60;;;;;;;-40.26;100.00;91916.53;4192651;28;24056;-66
2023/03/10 03:35:12;;;;;;;40.00;17.37;;;;;;;-40.16;100.00;91916.16;4187437;28;20236;-65
2023/03/10 03:37:38;;;;;;;44.97;19.20;;;;;;;-40.24;100.00;91914.84;4191924;28;20261;-64
2023/03/10 03:40:11;;;;;;;41.90;18.63;;;;;;;-40.28;100.00;91905.25;4187222;28;21727;-68
2023/03/10 03:42:42;;;;;;;46.03;19.43;;;;;;;-40.25;100.00;91896.16;4189788;28;21238;-68
2023/03/10 03:45:13;;;;;;;44.53;18.47;;;;;;;-40.23;100.00;91892.00;4196031;28;20241;-66
2023/03/10 03:47:40;;;;;;;47.10;19.80;;;;;;;-40.23;100.00;91882.22;4191813;28;20248;-64
2023/03/10 03:50:09;;;;;;;47.17;20.27;;;;;;;-40.24;100.00;91885.53;4195245;28;21299;-66
2023/03/10 03:52:35;;;;;;;45.33;18.97;;;;;;;-40.20;100.00;91872.31;4195832;28;20314;-69
2023/03/10 03:55:03;;;;;;;48.30;20.30;;;;;;;-40.24;100.00;91863.53;4196579;28;20234;-66
2023/03/10 03:57:29;;;;;;;48.17;19.50;;;;;;;-40.18;100.00;91864.16;4195024;28;22083;-64
2023/03/10 03:59:56;;;;;;;48.83;19.60;;;;;;;-40.14;100.00;91870.47;4198592;28;22428;-67
2023/03/10 04:02:22;;;;;;;49.37;20.17;;;;;;;-40.14;100.00;91865.59;4195951;28;21592;-66
2023/03/10 04:04:49;;;;;;;46.17;19.80;;;;;;;-40.10;100.00;91869.50;4193729;28;20332;-63
2023/03/10 04:07:16;;;;;;;49.23;20.17;;;;;;;-40.12;100.00;91851.66;4198621;28;20235;-68
2023/03/10 04:09:42;;;;;;;52.03;20.07;;;;;;;-40.06;100.00;91856.31;4189073;28;20264;-67
2023/03/10 04:12:09;;;;;;;52.90;20.70;;;;;;;-40.04;100.00;91838.28;4187604;28;20348;-67
2023/03/10 04:14:36;;;;;;;47.40;18.63;;;;;;;-40.03;100.00;91826.84;4169378;28;20356;-66
2023/03/10 04:17:04;;;;;;;50.07;20.13;;;;;;;-40.02;100.00;91830.88;4184179;28;20244;-64
2023/03/10 04:19:30;;;;;;;54.57;21.00;;;;;;;-39.97;100.00;91824.16;4179962;28;20252;-65
2023/03/10 04:21:57;;;;;;;48.90;21.67;;;;;;;-39.93;100.00;91824.81;4167042;28;20633;-66
2023/03/10 04:24:23;;;;;;;53.13;20.80;;;;;;;-39.97;100.00;91826.59;4186697;28;20233;-65
2023/03/10 04:26:50;;;;;;;47.27;20.77;;;;;;;-39.97;100.00;91821.72;4186569;28;20248;-68
2023/03/10 04:29:16;;;;;;;56.03;23.33;;;;;;;-39.95;100.00;91827.31;4175674;28;20957;-64
2023/03/10 04:31:43;;;;;;;57.93;23.53;;;;;;;-39.94;100.00;91838.69;4182184;28;20250;-65
2023/03/10 04:34:24;;;;;;;56.73;21.50;;;;;;;-39.87;100.00;91825.34;4167726;28;20568;-67
2023/03/10 04:36:50;;;;;;;59.43;23.20;;;;;;;-39.91;100.00;91825.53;4191100;28;21238;-66
2023/03/10 04:39:17;;;;;;;55.23;23.93;;;;;;;-39.89;100.00;91829.50;4183616;28;21259;-65
2023/03/10 04:41:43;;;;;;;65.63;24.00;;;;;;;-39.93;100.00;91810.91;4183741;28;20666;-67
2023/03/10 04:44:10;;;;;;;58.97;24.07;;;;;;;-39.87;100.00;91815.56;4186789;28;20247;-66
2023/03/10 04:46:55;;;;;;;58.93;23.33;;;;;;;-39.85;100.00;91800.84;4174978;28;20229;-65
2023/03/10 04:49:21;;;;;;;60.73;23.10;;;;;;;-39.81;100.00;91800.63;4187118;28;20310;-69
2023/03/10 04:51:48;;;;;;;57.83;24.30;;;;;;;-39.85;100.00;91793.50;4188556;28;20273;-66
2023/03/10 04:54:15;;;;;;;56.63;24.00;;;;;;;-39.88;100.00;91787.09;4188785;28;20312;-68
2023/03/10 04:56:41;;;;;;;58.10;24.43;;;;;;;-39.87;100.00;91780.56;4167265;28;20238;-64
2023/03/10 04:59:08;;;;;;;60.03;24.43;;;;;;;-39.90;100.00;91761.94;4187436;28;20240;-67
2023/03/10 05:01:34;;;;;;;55.13;23.67;;;;;;;-39.82;100.00;91756.69;4178904;28;20249;-66
2023/03/10 05:04:03;;;;;;;55.73;22.87;;;;;;;-39.79;100.00;91764.69;4186882;28;20379;-65
2023/03/10 05:06:30;;;;;;;61.80;24.23;;;;;;;-39.81;100.00;91755.84;4187482;28;21260;-63
2023/03/10 05:08:57;;;;;;;56.17;23.17;;;;;;;-39.81;100.00;91743.63;4185621;28;20232;-66
2023/03/10 05:11:23;;;;;;;59.40;24.37;;;;;;;-39.74;100.00;91739.22;4185044;28;20395;-64
2023/03/10 05:13:50;;;;;;;54.90;24.33;;;;;;;-39.73;100.00;91738.38;4190621;28;20328;-67
2023/03/10 05:16:19;;;;;;;54.47;24.13;;;;;;;-39.76;100.00;91712.41;4189166;28;21712;-68
2023/03/10 05:18:45;;;;;;;56.00;23.57;;;;;;;-39.78;100.00;91704.34;4184060;28;20240;-68
2023/03/10 05:21:12;;;;;;;57.47;23.97;;;;;;;-39.71;100.00;91717.09;4186911;28;20292;-66
2023/03/10 05:23:39;;;;;;;65.10;23.40;;;;;;;-39.68;100.00;91731.63;4187084;28;20310;-65
2023/03/10 05:26:07;;;;;;;52.07;23.53;;;;;;;-39.67;100.00;91738.06;4185380;28;20233;-64
2023/03/10 05:28:35;;;;;;;54.90;23.07;;;;;;;-39.73;100.00;91729.38;4178954;28;20669;-64
2023/03/10 05:31:10;;;;;;;55.43;22.90;;;;;;;-39.62;100.00;91736.25;4192056;28;21430;-66
2023/03/10 05:33:36;;;;;;;61.40;24.90;;;;;;;-39.60;100.00;91739.38;4172007;28;20235;-67
2023/03/10 05:36:07;;;;;;;61.30;25.20;;;;;;;-39.61;100.00;91728.81;4179734;28;20305;-66
2023/03/10 05:38:35;;;;;;;56.43;24.50;;;;;;;-39.58;100.00;91710.75;4195714;28;20248;-65
2023/03/10 05:41:05;;;;;;;62.87;25.63;;;;;;;-39.58;100.00;91713.22;4193449;28;20244;-64
2023/03/10 05:43:32;;;;;;;58.50;24.17;;;;;;;-39.52;100.00;91707.25;4176492;28;20244;-64
2023/03/10 05:45:59;;;;;;;57.00;25.30;;;;;;;-39.51;100.00;91702.28;4207723;28;21972;-65
2023/03/10 05:48:25;;;;;;;62.80;24.53;;;;;;;-39.43;100.00;91697.06;4195669;28;22706;-67
2023/03/10 05:51:04;;;;;;;59.73;24.70;;;;;;;-39.43;100.00;91697.84;4190188;28;20790;-68
2023/03/10 05:53:33;;;;;;;57.27;24.07;;;;;;;-39.38;100.00;91704.97;4196142;28;20275;-66
2023/03/10 05:55:59;;;;;;;65.20;26.27;;;;;;;-39.33;100.00;91701.41;4195073;28;24706;-65
2023/03/10 05:58:26;;;;;;;60.83;24.87;;;;;;;-39.26;100.00;91711.69;4180004;28;21778;-65
2023/03/10 06:00:53;;;;;;;58.67;25.20;;;;;;;-39.30;100.00;91717.59;4178493;28;21604;-67
2023/03/10 06:03:22;;;;;;;59.73;25.47;;;;;;;-39.24;100.00;91704.31;4169528;28;20251;-64
2023/03/10 06:05:49;;;;;;;58.83;25.73;;;;;;;-39.25;100.00;91700.25;4170164;28;20316;-66
2023/03/10 06:08:18;;;;;;;64.07;25.73;;;;;;;-39.19;100.00;91702.41;4200282;28;20241;-70
2023/03/10 06:10:45;;;;;;;60.10;24.70;;;;;;;-39.16;100.00;91697.38;4204502;28;20558;-69
2023/03/10 06:13:11;;;;;;;63.27;26.00;;;;;;;-39.15;100.00;91694.09;4201835;28;20336;-66
2023/03/10 06:15:38;;;;;;;61.13;25.27;;;;;;;-39.05;100.00;91690.31;4220329;28;20360;-64
2023/03/10 06:18:04;;;;;;;65.03;25.97;;;;;;;-39.07;100.00;91684.69;4206746;28;22733;-68
2023/03/10 06:20:31;;;;;;;61.40;24.63;;;;;;;-39.01;100.00;91679.53;4190841;28;21330;-68
2023/03/10 06:22:58;;;;;;;64.33;25.40;;;;;;;-38.98;100.00;91676.13;4200292;28;21545;-71
2023/03/10 06:25:24;;;;;;;67.13;25.93;;;;;;;-39.00;100.00;91676.19;4192503;28;20249;-68
2023/03/10 06:27:51;;;;;;;67.83;26.20;;;;;;;-38.94;100.00;91685.72;4199864;28;20234;-69
2023/03/10 06:30:17;;;;;;;62.00;26.23;;;;;;;-38.97;100.00;91685.88;4195872;28;20240;-66
2023/03/10 06:32:44;;;;;;;69.70;27.67;;;;;;;-38.88;100.00;91688.69;4212850;28;20233;-67
2023/03/10 06:35:12;;;;;;;70.60;27.10;;;;;;;-38.95;100.00;91679.22;4219164;28;20242;-70
2023/03/10 06:37:40;;;;;;;68.37;25.90;;;;;;;-38.87;100.00;91661.69;4191122;28;20326;-69
2023/03/10 06:40:08;;;;;;;68.40;26.67;;;;;;;-38.84;100.00;91658.31;4197972;28;21314;-67
2023/03/10 06:42:35;;;;;;;70.80;27.20;;;;;;;-38.77;100.00;91660.38;4221449;28;20878;-73
2023/03/10 06:45:02;;;;;;;73.37;27.80;;;;;;;-38.70;100.00;91675.56;4200327;28;23306;-70
2023/03/10 06:47:29;;;;;;;70.80;26.23;;;;;;;-38.65;100.00;91661.41;4192403;28;20421;-70
2023/03/10 06:49:56;;;;;;;75.17;28.47;;;;;;;-38.70;100.00;91661.66;4197564;28;20300;-69
2023/03/10 06:52:22;;;;;;;76.20;27.97;;;;;;;-38.69;100.00;91657.53;4197811;28;20574;-72
2023/03/10 06:54:49;;;;;;;71.73;27.93;;;;;;;-38.62;100.00;91653.91;4177744;28;21675;-69
2023/03/10 06:57:16;;;;;;;74.10;29.13;;;;;;;-38.59;100.00;91646.44;4204929;28;20236;-76
2023/03/10 06:59:46;;;;;;;73.93;28.77;;;;;;;-38.55;100.00;91638.06;4190967;28;22074;-71
2023/03/10 07:02:12;;;;;;;76.20;28.73;;;;;;;-38.51;100.00;91634.56;4183063;28;20245;-71
2023/03/10 07:04:39;;;;;;;76.13;29.97;;;;;;;-38.45;100.00;91630.22;4197223;28;20242;-71
2023/03/10 07:07:06;;;;;;;87.33;30.00;;;;;;;-38.40;100.00;91635.66;4209346;28;20243;-72
2023/03/10 07:09:32;;;;;;;74.63;30.07;;;;;;;-38.35;100.00;91628.88;4212270;28;20296;-71
2023/03/10 07:11:59;;;;;;;83.67;30.73;;;;;;;-38.35;100.00;91629.66;4196621;28;20538;-69
2023/03/10 07:14:25;;;;;;;78.23;30.83;;;;;;;-38.27;100.00;91627.63;4193768;28;20669;-68
2023/03/10 07:16:52;;;;;;;81.97;31.80;;;;;;;-38.17;100.00;91629.59;4194458;28;20248;-70
2023/03/10 07:19:18;;;;;;;82.67;30.20;;;;;;;-38.22;100.00;91615.13;4194757;28;20241;-69
2023/03/10 07:21:46;;;;;;;72.03;30.03;;;;;;;-38.20;100.00;91608.47;4195758;28;20287;-67
2023/03/10 07:24:13;;;;;;;76.17;29.80;;;;;;;-38.20;100.00;91617.47;4194630;28;21831;-69
2023/03/10 07:26:40;;;;;;;83.20;30.27;;;;;;;-38.15;100.00;91616.38;4188804;28;20263;-71
2023/03/10 07:29:06;;;;;;;82.73;31.77;;;;;;;-38.00;100.00;91623.81;4190302;28;20494;-70
2023/03/10 07:31:33;;;;;;;83.73;30.50;;;;;;;-38.05;100.00;91612.56;4209699;28;20394;-68
2023/03/10 07:34:00;;;;;;;78.13;30.40;;;;;;;-38.01;100.00;91619.75;4168736;28;23791;-70
2023/03/10 07:36:28;;;;;;;84.93;31.90;;;;;;;-37.95;100.00;91616.97;4194847;28;20652;-71
2023/03/10 07:38:55;;;;;;;77.07;30.13;;;;;;;-37.97;100.00;91604.78;4197234;28;20233;-66
2023/03/10 07:41:22;;;;;;;80.30;31.63;;;;;;;-37.87;100.00;91607.53;4195214;28;20325;-69
2023/03/10 07:43:52;;;;;;;75.43;29.73;;;;;;;-37.79;100.00;91598.09;4202399;28;20426;-67
2023/03/10 07:46:19;;;;;;;78.40;31.73;;;;;;;-37.74;100.00;91588.06;4218738;28;20313;-65
2023/03/10 07:48:47;;;;;;;83.47;30.70;;;;;;;-37.57;100.00;91592.03;4175304;28;22129;-68
2023/03/10 07:51:13;;;;;;;79.70;31.03;;;;;;;-37.44;100.00;91588.00;4197288;28;21973;-67
2023/03/10 07:53:41;;;;;;;76.60;30.27;;;;;;;-37.50;100.00;91583.44;4218294;28;20236;-66
2023/03/10 07:56:09;;;;;;;70.90;30.80;;;;;;;-37.40;100.00;91584.53;4230165;28;22079;-67
2023/03/10 07:58:36;;;;;;;72.20;30.20;;;;;;;-37.31;100.00;91578.28;4183140;28;20889;-71
2023/03/10 08:01:04;;;;;;;68.07;28.30;;;;;;;-37.23;100.00;91572.09;4210448;28;20419;-69
2023/03/10 08:03:32;;;;;;;78.03;31.13;;;;;;;-37.09;100.00;91566.41;4193959;28;25997;-64
2023/03/10 08:06:00;;;;;;;69.77;28.40;;;;;;;-37.03;100.00;91568.50;4187598;28;20237;-67
2023/03/10 08:08:27;;;;;;;65.80;29.27;;;;;;;-36.91;100.00;91552.25;4204632;28;20314;-63
2023/03/10 08:11:05;;;;;;;68.17;29.73;;;;;;;-37.09;100.00;91550.88;4183617;28;20241;-63
2023/03/10 08:13:32;;;;;;;75.93;28.33;;;;;;;-37.05;100.00;91548.16;4177752;28;20243;-66
2023/03/10 08:16:00;;;;;;;64.97;27.53;;;;;;;-36.99;100.00;91546.97;4202267;28;20285;-66
2023/03/10 08:18:28;;;;;;;70.40;29.33;;;;;;;-37.06;100.00;91550.69;4198938;28;20255;-65
2023/03/10 08:20:55;;;;;;;67.30;28.17;;;;;;;-37.02;100.00;91550.41;4194946;28;20234;-66
2023/03/10 08:23:23;;;;;;;68.17;27.40;;;;;;;-36.97;100.00;91552.59;4204882;28;20233;-66
2023/03/10 08:25:50;;;;;;;65.80;26.93;;;;;;;-36.94;100.00;91566.38;4197236;28;20233;-67
2023/03/10 08:28:16;;;;;;;65.37;28.67;;;;;;;-36.98;100.00;91551.81;4192459;28;20239;-63
2023/03/10 08:30:43;;;;;;;66.10;27.57;;;;;;;-36.94;100.00;91542.59;4197873;28;20233;-66
2023/03/10 08:33:29;;;;;;;69.17;28.67;;;;;;;-37.03;100.00;91543.13;4200420;28;20235;-66
2023/03/10 08:36:04;;;;;;;70.70;28.73;;;;;;;-37.04;100.00;91541.56;4202396;28;21001;-64
2023/03/10 08:38:31;;;;;;;69.50;28.33;;;;;;;-37.13;100.00;91528.16;4190809;28;20228;-66
2023/03/10 08:41:14;;;;;;;74.80;29.83;;;;;;;-37.15;100.00;91526.66;4188995;28;20245;-66
2023/03/10 08:43:42;;;;;;;71.83;29.17;;;;;;;-37.09;100.00;91531.25;4186080;28;20233;-66
2023/03/10 08:46:11;;;;;;;72.53;29.37;;;;;;;-37.07;100.00;91541.75;4195380;28;20877;-65
2023/03/10 08:48:38;;;;;;;73.27;29.70;;;;;;;-37.06;100.00;91538.41;4210512;28;21915;-66
2023/03/10 08:51:09;;;;;;;73.10;28.97;;;;;;;-36.89;100.00;91544.78;4196588;28;25581;-67
2023/03/10 08:53:36;;;;;;;71.83;29.50;;;;;;;-36.85;100.00;91536.38;4205068;28;20237;-65
2023/03/10 08:56:04;;;;;;;65.57;27.20;;;;;;;-36.86;100.00;91525.75;4212826;28;21491;-66
2023/03/10 08:58:31;;;;;;;81.17;30.80;;;;;;;-36.62;100.00;91532.56;4225043;28;25105;-66
2023/03/10 09:00:58;;;;;;;75.20;28.30;;;;;;;-36.52;100.00;91528.66;4230638;28;23130;-65
2023/03/10 09:03:25;;;;;;;77.33;29.77;;;;;;;-36.47;100.00;91506.25;4217315;28;20313;-66
2023/03/10 09:05:54;;;;;;;66.87;27.77;;;;;;;-36.40;100.00;91527.91;4201429;28;20340;-65
2023/03/10 09:08:20;;;;;;;64.70;26.53;;;;;;;-36.39;100.00;91504.13;4196768;28;20238;-67
2023/03/10 09:10:47;;;;;;;66.20;28.10;;;;;;;-36.29;100.00;91514.19;4197404;28;21917;-64
2023/03/10 09:13:14;;;;;;;65.47;27.50;;;;;;;-36.34;100.00;91488.22;4195431;28;20315;-65
2023/03/10 09:15:41;;;;;;;62.03;26.27;;;;;;;-36.24;100.00;91514.72;4196195;28;25694;-66
2023/03/10 09:18:09;;;;;;;61.90;26.53;;;;;;;-36.25;100.00;91500.84;4177149;28;21757;-66
2023/03/10 09:20:38;;;;;;;59.20;25.07;;;;;;;-36.20;100.00;91499.69;4201274;28;20233;-67
2023/03/10 09:23:05;;;;;;;59.87;25.17;;;;;;;-36.06;100.00;91493.88;4198769;28;20406;-66
2023/03/10 09:25:32;;;;;;;62.53;24.67;;;;;;;-36.14;100.00;91494.38;4197630;28;20240;-66
2023/03/10 09:27:58;;;;;;;58.57;25.00;;;;;;;-36.04;100.00;91476.59;4216978;28;20411;-67
2023/03/10 09:30:25;;;;;;;64.87;25.33;;;;;;;-36.07;100.00;91481.66;4197171;28;22254;-66
2023/03/10 09:32:52;;;;;;;59.00;25.60;;;;;;;-36.07;100.00;91480.00;4195800;28;20239;-67
2023/03/10 09:35:19;;;;;;;53.07;24.27;;;;;;;-36.02;100.00;91470.69;4203447;28;20243;-65
2023/03/10 09:37:46;;;;;;;56.97;24.37;;;;;;;-36.05;100.00;91465.94;4201801;28;21814;-67
2023/03/10 09:40:18;;;;;;;57.73;24.00;;;;;;;-36.06;100.00;91469.28;4197813;28;25546;-66
2023/03/10 09:42:46;;;;;;;57.47;25.30;;;;;;;-35.92;100.00;91476.59;4199235;28;20233;-66
2023/03/10 09:45:30;;;;;;;64.87;24.57;;;;;;;-35.85;100.00;91481.13;4212830;28;20720;-67
2023/03/10 09:48:18;;;;;;;59.90;24.87;;;;;;;-35.81;100.00;91480.84;4181116;28;20680;-67
2023/03/10 09:50:46;;;;;;;58.37;22.13;;;;;;;-35.89;100.00;91473.94;4203336;28;20229;-67
2023/03/10 09:53:43;;;;;;;66.67;25.43;;;;;;;-35.93;100.00;91484.88;4210200;28;20335;-65
2023/03/10 09:56:19;;;;;;;55.77;23.80;;;;;;;-35.94;100.00;91480.81;4178645;28;20247;-66
2023/03/10 09:58:49;;;;;;;53.63;23.83;;;;;;;-35.90;100.00;91472.38;4182998;28;20794;-66
2023/03/10 10:01:18;;;;;;;59.00;24.77;;;;;;;-35.76;100.00;91478.09;4190556;28;20257;-65
2023/03/10 10:03:47;;;;;;;67.23;24.43;;;;;;;-35.70;100.00;91472.78;4169120;28;20240;-66
2023/03/10 10:06:27;;;;;;;58.17;23.43;;;;;;;-35.60;100.00;91463.94;4195263;28;20416;-65
2023/03/10 10:08:59;;;;;;;56.87;24.47;;;;;;;-35.53;100.00;91469.22;4196715;28;20241;-65
2023/03/10 10:11:32;;;;;;;60.23;22.90;;;;;;;-35.52;100.00;91458.50;4204976;28;21881;-66
2023/03/10 10:14:19;;;;;;;48.37;21.93;;;;;;;-35.43;100.00;91430.03;4186232;28;20934;-66
2023/03/10 10:17:06;;;;;;;55.60;24.20;;;;;;;-35.41;100.00;91428.25;4196439;28;21509;-66
2023/03/10 10:19:33;;;;;;;67.63;24.37;;;;;;;-35.40;100.00;91418.31;4190119;28;20273;-67
2023/03/10 10:22:09;;;;;;;51.10;22.87;;;;;;;-35.31;100.00;91424.31;4192323;28;20292;-67
2023/03/10 10:24:37;;;;;;;50.90;22.10;;;;;;;-35.23;100.00;91418.88;4209880;28;20230;-67
2023/03/10 10:27:03;;;;;;;50.87;22.47;;;;;;;-35.18;100.00;91417.66;4178835;28;20235;-65
2023/03/10 10:29:35;;;;;;;58.80;21.63;;;;;;;-35.12;100.00;91409.09;4201333;28;20668;-67
2023/03/10 10:32:03;;;;;;;50.87;21.77;;;;;;;-34.99;100.00;91419.69;4198749;28;21214;-68
2023/03/10 10:34:31;;;;;;;46.30;20.97;;;;;;;-34.98;100.00;91415.56;4202586;28;20307;-65
2023/03/10 10:36:58;;;;;;;57.73;22.87;;;;;;;-34.95;100.00;91400.56;4192479;28;20307;-67
2023/03/10 10:39:31;;;;;;;55.67;24.03;;;;;;;-34.82;100.00;91406.25;4198883;28;20241;-67
2023/03/10 10:42:23;;;;;;;51.27;22.10;;;;;;;-34.80;100.00;91414.31;4196207;28;20311;-64
2023/03/10 10:45:15;;;;;;;48.37;21.30;;;;;;;-34.69;100.00;91396.31;4197901;28;21635;-66
2023/03/10 10:47:50;;;;;;;61.90;23.10;;;;;;;-34.46;100.00;91412.00;4205393;28;20238;-65
2023/03/10 10:50:26;;;;;;;51.23;22.80;;;;;;;-34.21;100.00;91406.16;4205925;28;21641;-67
2023/03/10 10:53:11;;;;;;;51.23;21.63;;;;;;;-34.24;100.00;91402.22;4188979;28;22664;-67
2023/03/10 10:55:39;;;;;;;50.07;22.33;;;;;;;-34.21;100.00;91408.63;4198478;28;20389;-66
2023/03/10 10:58:22;;;;;;;50.43;23.00;;;;;;;-34.06;100.00;91404.25;4225596;28;20303;-67
2023/03/10 11:00:57;;;;;;;52.37;21.47;;;;;;;-33.88;100.00;91400.50;4193681;28;20645;-67
2023/03/10 11:03:38;;;;;;;54.63;22.43;;;;;;;-33.72;100.00;91396.97;4187818;28;20236;-68
2023/03/10 11:06:20;;;;;;;48.43;20.67;;;;;;;-33.55;100.00;91397.28;4207981;28;23935;-69
2023/03/10 11:08:49;;;;;;;50.30;20.30;;;;;;;-33.57;100.00;91395.84;4196699;28;21097;-64